Lahaska, Pennsylvania
Current Conditions -  °F | °C
As of 8:54 AM on Sunday 23 Nov 2014 (Local Time) from KDYL Reporting Station
Few Clouds Few Clouds  
Wind Chill: 38°   Ceiling: Unl
Heat Index: 41°   Visibility: 10mi
Dew Point: 24°   Wind: 5mph
Humidity: 51%   Direction: 220°SW
Pressure: 30.22"   Gusts: NA
Location:  40.35°N, 75.03°W
Report Text: KDYL 231354Z AUTO 22004KT 10SM FEW100 05/M04 A3022 RMK AO2 SLP238 T00501044
Loading
Personal Weather Stations






























Interactive Weather Map New forecast layout! Learn more

10-Day Weather Forecast

Advertisements
Track Severe Weather on mobile